createdAt,value
2018-09-29T00:00:18.899Z,48.00
2018-09-29T00:05:22.125Z,48.00
2018-09-29T00:10:25.415Z,47.90
2018-09-29T00:15:28.643Z,47.70
2018-09-29T00:20:31.860Z,47.70
2018-09-29T00:25:35.095Z,47.60
2018-09-29T00:30:38.308Z,47.60
2018-09-29T00:35:41.524Z,47.80
2018-09-29T00:40:44.795Z,47.60
2018-09-29T00:45:48.020Z,47.80
2018-09-29T00:50:51.251Z,47.80
2018-09-29T00:55:54.492Z,47.60
2018-09-29T01:00:57.828Z,48.40
2018-09-29T01:06:01.052Z,48.40
2018-09-29T01:11:04.243Z,47.60
2018-09-29T01:16:07.527Z,47.50
2018-09-29T01:21:11.144Z,47.60
2018-09-29T01:26:14.351Z,47.30
2018-09-29T01:31:17.642Z,47.50
2018-09-29T01:36:20.913Z,47.30
2018-09-29T01:41:24.152Z,47.50
2018-09-29T01:46:27.429Z,47.30
2018-09-29T01:51:30.643Z,47.30
2018-09-29T01:56:33.852Z,47.30
2018-09-29T02:01:37.084Z,47.30
2018-09-29T02:06:40.296Z,47.20
2018-09-29T02:11:43.507Z,47.30
2018-09-29T02:16:46.731Z,47.30
2018-09-29T02:21:49.927Z,47.30
2018-09-29T02:26:53.139Z,47.50
2018-09-29T02:31:56.406Z,47.40
2018-09-29T02:36:59.626Z,47.50
2018-09-29T02:42:02.872Z,47.50
2018-09-29T02:47:06.133Z,47.50
2018-09-29T02:52:09.344Z,47.30
2018-09-29T02:57:12.560Z,47.10
2018-09-29T03:02:15.796Z,47.40
2018-09-29T03:07:19.063Z,47.30
2018-09-29T03:12:22.233Z,47.00
2018-09-29T03:17:25.443Z,47.10
2018-09-29T03:22:28.779Z,47.30
2018-09-29T03:27:31.995Z,47.10
2018-09-29T03:32:35.208Z,47.40
2018-09-29T03:37:38.423Z,47.00
2018-09-29T03:42:41.659Z,47.00
2018-09-29T03:47:44.855Z,46.90
2018-09-29T03:52:48.079Z,46.90
2018-09-29T03:57:51.271Z,46.80
2018-09-29T04:02:54.476Z,46.90
2018-09-29T04:07:57.692Z,46.80
2018-09-29T04:13:00.980Z,46.90
2018-09-29T04:18:04.219Z,47.00
2018-09-29T04:23:07.427Z,46.80
2018-09-29T04:28:10.629Z,46.90
2018-09-29T04:33:13.832Z,46.90
2018-09-29T04:38:17.427Z,47.10
2018-09-29T04:43:20.753Z,47.00
2018-09-29T04:48:23.859Z,47.10
2018-09-29T04:53:27.243Z,47.10
2018-09-29T04:58:31.556Z,46.90
2018-09-29T05:03:34.771Z,47.10
2018-09-29T05:08:37.984Z,47.10
2018-09-29T05:13:41.197Z,47.00
2018-09-29T05:18:44.507Z,47.50
2018-09-29T05:23:48.134Z,47.00
2018-09-29T05:28:51.387Z,47.00
2018-09-29T05:33:54.599Z,47.00
2018-09-29T05:38:57.824Z,46.90
2018-09-29T05:44:01.072Z,46.90
2018-09-29T05:49:04.269Z,46.90
2018-09-29T05:54:07.568Z,46.80
2018-09-29T05:59:10.784Z,46.70
2018-09-29T06:04:13.967Z,46.90
2018-09-29T06:09:17.191Z,46.80
2018-09-29T06:14:20.416Z,46.70
2018-09-29T06:19:23.664Z,46.90
2018-09-29T06:24:26.875Z,46.80
2018-09-29T06:29:30.117Z,46.70
2018-09-29T06:34:33.339Z,46.80
2018-09-29T06:39:36.727Z,46.90
2018-09-29T06:44:39.960Z,47.00
2018-09-29T06:49:43.189Z,46.80
2018-09-29T06:54:46.455Z,47.00
2018-09-29T06:59:49.667Z,47.10
2018-09-29T07:04:52.884Z,47.10
2018-09-29T07:09:56.105Z,47.10
2018-09-29T07:14:59.378Z,47.00
2018-09-29T07:20:02.601Z,47.40
2018-09-29T07:25:05.911Z,47.40
2018-09-29T07:30:09.118Z,48.00
2018-09-29T07:35:12.317Z,48.10
2018-09-29T07:40:15.609Z,48.50
2018-09-29T07:45:18.891Z,47.70
2018-09-29T07:50:22.108Z,48.20
2018-09-29T07:55:25.324Z,47.90
2018-09-29T08:00:28.760Z,48.20
2018-09-29T08:05:32.103Z,48.70
2018-09-29T08:10:35.323Z,48.60
2018-09-29T08:15:38.516Z,49.60
2018-09-29T08:20:41.755Z,48.50
2018-09-29T08:25:45.061Z,49.00
2018-09-29T08:30:48.276Z,48.50
2018-09-29T08:35:51.543Z,48.80
2018-09-29T08:40:54.815Z,49.10
2018-09-29T08:45:58.020Z,49.00
2018-09-29T08:51:01.228Z,49.20
2018-09-29T08:56:04.464Z,49.30
2018-09-29T09:01:07.725Z,49.40
2018-09-29T09:06:10.943Z,50.00
2018-09-29T09:11:14.164Z,49.70
2018-09-29T09:16:17.407Z,50.20
2018-09-29T09:21:20.635Z,50.10
2018-09-29T09:26:23.868Z,50.50
2018-09-29T09:31:27.079Z,50.50
2018-09-29T09:36:30.412Z,50.50
2018-09-29T09:41:33.664Z,51.00
2018-09-29T09:46:36.916Z,51.00
2018-09-29T09:51:40.143Z,50.90
2018-09-29T09:56:43.364Z,51.10
2018-09-29T10:01:51.979Z,51.20
2018-09-29T10:06:55.237Z,50.70
2018-09-29T10:11:58.453Z,50.90
2018-09-29T10:17:01.663Z,51.10
2018-09-29T10:22:05.027Z,51.20
2018-09-29T10:27:08.255Z,50.70
2018-09-29T10:32:11.463Z,51.00
2018-09-29T10:37:14.671Z,51.30
2018-09-29T10:42:17.928Z,50.60
2018-09-29T10:47:21.200Z,51.10
2018-09-29T10:52:24.408Z,51.00
2018-09-29T10:57:27.628Z,50.70
2018-09-29T11:02:30.839Z,51.10
2018-09-29T11:07:34.048Z,51.30
2018-09-29T11:12:37.280Z,50.80
2018-09-29T11:17:40.493Z,50.80
2018-09-29T11:22:43.691Z,50.10
2018-09-29T11:27:46.978Z,50.70
2018-09-29T11:32:50.190Z,50.80
2018-09-29T11:37:54.242Z,50.00
2018-09-29T11:42:57.547Z,50.50
2018-09-29T11:48:00.812Z,50.80
2018-09-29T11:53:04.043Z,49.30
2018-09-29T11:58:07.268Z,51.20
2018-09-29T12:03:10.490Z,50.20
2018-09-29T12:08:13.715Z,49.70
2018-09-29T12:13:16.944Z,50.10
2018-09-29T12:18:20.176Z,50.80
2018-09-29T12:23:23.408Z,49.40
2018-09-29T12:28:26.596Z,49.00
2018-09-29T12:33:29.811Z,48.10
2018-09-29T12:38:33.042Z,49.10
2018-09-29T12:43:36.264Z,49.40
2018-09-29T12:48:39.479Z,48.80
2018-09-29T12:53:42.742Z,48.20
2018-09-29T12:58:46.013Z,48.50
2018-09-29T13:03:49.212Z,47.50
2018-09-29T13:08:52.442Z,47.50
2018-09-29T13:13:55.705Z,47.20
2018-09-29T13:18:59.127Z,47.30
2018-09-29T13:24:02.336Z,48.60
2018-09-29T13:29:05.576Z,47.30
2018-09-29T13:34:08.783Z,48.30
2018-09-29T13:39:11.984Z,46.20
2018-09-29T13:44:15.228Z,48.20
2018-09-29T13:49:18.436Z,46.00
2018-09-29T13:54:21.652Z,46.20
2018-09-29T13:59:24.852Z,46.50
2018-09-29T14:04:28.060Z,47.70
2018-09-29T14:09:31.280Z,45.90
2018-09-29T14:14:34.535Z,45.80
2018-09-29T14:19:39.436Z,45.80
2018-09-29T14:24:42.878Z,47.60
2018-09-29T14:29:46.080Z,47.60
2018-09-29T14:34:49.287Z,46.80
2018-09-29T14:39:52.503Z,45.60
2018-09-29T14:44:56.063Z,44.90
2018-09-29T14:49:59.403Z,45.20
2018-09-29T14:55:02.647Z,45.00
2018-09-29T15:00:06.497Z,45.40
2018-09-29T15:05:09.768Z,45.70
2018-09-29T15:10:13.033Z,48.00
2018-09-29T15:15:16.320Z,45.80
2018-09-29T15:20:21.258Z,46.50
2018-09-29T15:25:24.484Z,45.20
2018-09-29T15:30:27.679Z,44.50
2018-09-29T15:35:30.872Z,44.10
2018-09-29T15:40:34.095Z,45.40
2018-09-29T15:45:37.347Z,45.10
2018-09-29T15:50:40.584Z,45.20
2018-09-29T15:55:43.860Z,45.90
2018-09-29T16:00:47.015Z,45.10
2018-09-29T16:05:50.268Z,44.70
2018-09-29T16:10:53.504Z,45.20
2018-09-29T16:15:56.668Z,44.30
2018-09-29T16:20:59.860Z,45.40
2018-09-29T16:26:03.339Z,45.50
2018-09-29T16:31:06.572Z,45.20
2018-09-29T16:36:09.796Z,44.80
2018-09-29T16:41:13.063Z,44.60
2018-09-29T16:46:16.423Z,44.70
2018-09-29T16:51:19.623Z,44.20
2018-09-29T16:56:22.816Z,44.30
2018-09-29T17:01:26.011Z,44.20
2018-09-29T17:06:29.196Z,44.50
2018-09-29T17:11:32.393Z,44.60
2018-09-29T17:16:36.239Z,44.50
2018-09-29T17:21:39.472Z,45.20
2018-09-29T17:26:42.698Z,45.30
2018-09-29T17:31:46.098Z,45.40
2018-09-29T17:36:49.317Z,46.20
2018-09-29T17:41:52.544Z,45.50
2018-09-29T17:46:55.749Z,45.80
2018-09-29T17:51:58.952Z,45.80
2018-09-29T17:57:02.144Z,46.10
2018-09-29T18:02:05.546Z,45.80
2018-09-29T18:07:09.067Z,45.80
2018-09-29T18:12:12.278Z,45.80
2018-09-29T18:17:15.488Z,45.80
2018-09-29T18:22:18.752Z,45.60
2018-09-29T18:27:21.963Z,45.70
2018-09-29T18:32:25.161Z,45.70
2018-09-29T18:37:28.406Z,45.90
2018-09-29T18:42:31.728Z,45.60
2018-09-29T18:47:34.952Z,45.60
2018-09-29T18:52:38.156Z,46.30
2018-09-29T18:57:41.440Z,45.80
2018-09-29T19:02:44.689Z,45.60
2018-09-29T19:07:47.944Z,45.70
2018-09-29T19:12:51.241Z,45.70
2018-09-29T19:17:54.427Z,45.50
2018-09-29T19:22:57.664Z,45.60
2018-09-29T19:28:00.868Z,45.70
2018-09-29T19:33:04.076Z,45.80
2018-09-29T19:38:07.317Z,45.70
2018-09-29T19:43:10.536Z,45.80
2018-09-29T19:48:13.745Z,45.80
2018-09-29T19:53:16.952Z,45.70
2018-09-29T19:58:20.154Z,45.80
2018-09-29T20:03:23.384Z,45.80
2018-09-29T20:08:26.604Z,45.80
2018-09-29T20:13:29.817Z,46.50
2018-09-29T20:18:33.024Z,45.80
2018-09-29T20:23:36.232Z,45.80
2018-09-29T20:28:39.460Z,45.90
2018-09-29T20:33:42.680Z,45.90
2018-09-29T20:38:45.871Z,45.70
2018-09-29T20:43:49.095Z,45.70
2018-09-29T20:48:52.299Z,45.60
2018-09-29T20:53:55.916Z,45.80
2018-09-29T20:58:59.119Z,46.10
2018-09-29T21:04:02.313Z,46.00
2018-09-29T21:09:07.019Z,45.80
2018-09-29T21:14:10.224Z,46.00
2018-09-29T21:19:13.519Z,45.70
2018-09-29T21:24:16.728Z,45.60
2018-09-29T21:29:19.932Z,45.70
2018-09-29T21:34:23.154Z,45.70
2018-09-29T21:39:26.355Z,45.90
2018-09-29T21:44:29.570Z,46.10
2018-09-29T21:49:32.829Z,45.90
2018-09-29T21:54:36.041Z,45.80
2018-09-29T21:59:39.272Z,45.90
2018-09-29T22:04:42.553Z,46.20
2018-09-29T22:09:45.675Z,45.70
2018-09-29T22:14:48.895Z,45.90
2018-09-29T22:19:52.112Z,45.70
2018-09-29T22:24:55.312Z,45.90
2018-09-29T22:29:58.534Z,46.40
2018-09-29T22:35:01.734Z,45.60
2018-09-29T22:40:05.232Z,45.50
2018-09-29T22:45:08.475Z,45.60
2018-09-29T22:50:11.699Z,45.80
2018-09-29T22:55:14.895Z,45.80
2018-09-29T23:00:18.112Z,45.80
2018-09-29T23:05:21.308Z,45.70
2018-09-29T23:10:24.541Z,45.80
2018-09-29T23:15:27.757Z,45.50
2018-09-29T23:20:30.948Z,45.70
2018-09-29T23:25:34.143Z,45.70
2018-09-29T23:30:37.360Z,45.80
2018-09-29T23:35:40.568Z,45.50
2018-09-29T23:40:43.810Z,45.60
2018-09-29T23:45:47.031Z,45.50
2018-09-29T23:50:50.259Z,45.70
2018-09-29T23:55:53.488Z,45.60
